Time;durP1;ratioP1;P1;durP2;ratioP2;P2;SDS_P1;SDS_P2;PMS_P1;PMS_P2;Temp;Humidity;BMP_temperature;BMP_pressure;BME280_temperature;BME280_humidity;BME280_pressure;Samples;Min_cycle;Max_cycle;Signal;HPM_P1;HPM_P2
2023/04/10 00:02:16;;;;;;;1.00;1.00;;;;;;;;;;5037727;28;20189;-54
2023/04/10 00:04:42;;;;;;;1.10;1.10;;;;;;;;;;5039462;28;20258;-54
2023/04/10 00:07:08;;;;;;;1.00;1.00;;;;;;;;;;5038412;28;20203;-54
2023/04/10 00:09:35;;;;;;;1.00;1.00;;;;;;;;;;5053492;28;20231;-54
2023/04/10 00:12:01;;;;;;;1.03;1.03;;;;;;;;;;5058601;28;20587;-54
2023/04/10 00:14:26;;;;;;;1.27;1.27;;;;;;;;;;5058309;28;20192;-54
2023/04/10 00:16:52;;;;;;;1.10;1.10;;;;;;;;;;5055172;28;20793;-54
2023/04/10 00:19:18;;;;;;;1.00;1.00;;;;;;;;;;5072687;28;20746;-54
2023/04/10 00:21:44;;;;;;;1.10;1.10;;;;;;;;;;5056451;28;20563;-55
2023/04/10 00:24:10;;;;;;;1.20;1.20;;;;;;;;;;5053450;28;20279;-54
2023/04/10 00:26:36;;;;;;;1.10;1.10;;;;;;;;;;5058231;28;20271;-54
2023/04/10 00:29:03;;;;;;;1.10;1.10;;;;;;;;;;5073539;28;20206;-54
2023/04/10 00:31:29;;;;;;;1.10;1.10;;;;;;;;;;5044744;28;20187;-53
2023/04/10 00:33:55;;;;;;;1.10;1.10;;;;;;;;;;5052574;28;20192;-54
2023/04/10 00:36:21;;;;;;;0.90;0.90;;;;;;;;;;5047586;28;20565;-54
2023/04/10 00:38:48;;;;;;;0.90;0.90;;;;;;;;;;5053053;28;20192;-55
2023/04/10 00:41:14;;;;;;;1.10;1.10;;;;;;;;;;5053622;28;20703;-54
2023/04/10 00:43:40;;;;;;;1.10;1.10;;;;;;;;;;5034880;28;20238;-54
2023/04/10 00:46:06;;;;;;;1.10;1.10;;;;;;;;;;5056655;28;20195;-54
2023/04/10 00:48:32;;;;;;;1.10;1.10;;;;;;;;;;5057552;28;20198;-55
2023/04/10 00:50:59;;;;;;;1.00;1.00;;;;;;;;;;5049562;28;20257;-54
2023/04/10 00:53:25;;;;;;;1.03;1.03;;;;;;;;;;5054954;28;20252;-54
2023/04/10 00:55:51;;;;;;;1.20;1.20;;;;;;;;;;5069179;28;20417;-55
2023/04/10 00:58:17;;;;;;;1.10;1.10;;;;;;;;;;5052782;28;20183;-53
2023/04/10 01:00:43;;;;;;;1.00;1.00;;;;;;;;;;5055350;28;20227;-53
2023/04/10 01:03:09;;;;;;;1.20;1.20;;;;;;;;;;5053561;28;20280;-53
2023/04/10 01:05:35;;;;;;;1.10;1.10;;;;;;;;;;5051479;28;20184;-53
2023/04/10 01:08:08;;;;;;;1.10;1.10;;;;;;;;;;5068052;28;20239;-53
2023/04/10 01:10:37;;;;;;;1.10;1.10;;;;;;;;;;5072052;28;20184;-53
2023/04/10 01:13:22;;;;;;;1.10;1.10;;;;;;;;;;5055860;28;20243;-53
2023/04/10 01:15:48;;;;;;;1.30;1.30;;;;;;;;;;5054787;28;20183;-53
2023/04/10 01:18:19;;;;;;;1.20;1.20;;;;;;;;;;5055602;28;20557;-53
2023/04/10 01:20:45;;;;;;;1.20;1.20;;;;;;;;;;5066486;28;20841;-53
2023/04/10 01:23:30;;;;;;;1.30;1.30;;;;;;;;;;5057939;28;20196;-53
2023/04/10 01:25:57;;;;;;;1.20;1.20;;;;;;;;;;5054677;28;20204;-53
2023/04/10 01:28:42;;;;;;;1.20;1.20;;;;;;;;;;5039201;28;20250;-53
2023/04/10 01:31:08;;;;;;;1.20;1.20;;;;;;;;;;5057882;28;20200;-53
2023/04/10 01:33:44;;;;;;;1.10;1.10;;;;;;;;;;5070609;28;20240;-53
2023/04/10 01:36:10;;;;;;;1.00;1.00;;;;;;;;;;5055908;28;20180;-53
2023/04/10 01:38:36;;;;;;;1.20;1.20;;;;;;;;;;5056948;28;20210;-53
2023/04/10 01:41:02;;;;;;;1.20;1.20;;;;;;;;;;5056016;28;20188;-55
2023/04/10 01:43:28;;;;;;;1.10;1.10;;;;;;;;;;5054529;28;20644;-55
2023/04/10 01:45:54;;;;;;;1.30;1.30;;;;;;;;;;5055451;28;20696;-55
2023/04/10 01:48:20;;;;;;;1.00;1.00;;;;;;;;;;5054731;28;20765;-54
2023/04/10 01:50:46;;;;;;;1.10;1.10;;;;;;;;;;5067252;28;20198;-55
2023/04/10 01:53:12;;;;;;;1.10;1.10;;;;;;;;;;5042683;28;20221;-55
2023/04/10 01:55:38;;;;;;;1.10;1.10;;;;;;;;;;5069330;28;20258;-55
2023/04/10 01:58:04;;;;;;;1.00;1.00;;;;;;;;;;5054433;28;20731;-55
2023/04/10 02:00:30;;;;;;;1.00;1.00;;;;;;;;;;5052012;28;20987;-54
2023/04/10 02:02:57;;;;;;;1.03;1.03;;;;;;;;;;5053658;28;20187;-54
2023/04/10 02:05:24;;;;;;;0.90;0.90;;;;;;;;;;5058162;28;20204;-55
2023/04/10 02:07:55;;;;;;;0.90;0.90;;;;;;;;;;5069867;28;20195;-54
2023/04/10 02:10:39;;;;;;;1.00;1.00;;;;;;;;;;5043608;28;20711;-55
2023/04/10 02:13:07;;;;;;;1.00;1.00;;;;;;;;;;5052145;28;20239;-55
2023/04/10 02:15:33;;;;;;;0.90;0.90;;;;;;;;;;5052577;28;20188;-55
2023/04/10 02:17:59;;;;;;;1.00;1.00;;;;;;;;;;5053772;28;20188;-55
2023/04/10 02:20:25;;;;;;;0.90;0.90;;;;;;;;;;5070509;28;20655;-55
2023/04/10 02:22:52;;;;;;;0.90;0.90;;;;;;;;;;5054600;28;20654;-55
2023/04/10 02:25:18;;;;;;;1.00;1.00;;;;;;;;;;5053122;28;20611;-55
2023/04/10 02:27:44;;;;;;;1.00;1.00;;;;;;;;;;5052057;28;20218;-55
2023/04/10 02:30:10;;;;;;;1.00;1.00;;;;;;;;;;5053135;28;20187;-55
2023/04/10 02:32:36;;;;;;;1.00;1.00;;;;;;;;;;5054097;28;20700;-58
2023/04/10 02:35:02;;;;;;;1.13;1.13;;;;;;;;;;5055123;28;20191;-55
2023/04/10 02:37:28;;;;;;;1.00;1.00;;;;;;;;;;5052185;28;20187;-55
2023/04/10 02:39:55;;;;;;;1.10;1.10;;;;;;;;;;5055033;28;20184;-55
2023/04/10 02:42:20;;;;;;;1.00;1.00;;;;;;;;;;5054900;28;20548;-54
2023/04/10 02:44:47;;;;;;;1.00;1.00;;;;;;;;;;5054376;28;20198;-55
2023/04/10 02:47:13;;;;;;;1.00;1.00;;;;;;;;;;5051811;28;20196;-54
2023/04/10 02:49:39;;;;;;;0.90;0.90;;;;;;;;;;5052668;28;20198;-55
2023/04/10 02:52:05;;;;;;;1.00;1.00;;;;;;;;;;5054261;28;20344;-55
2023/04/10 02:54:31;;;;;;;1.00;1.00;;;;;;;;;;5050657;28;20187;-54
2023/04/10 02:56:58;;;;;;;1.10;1.10;;;;;;;;;;5055530;28;20547;-55
2023/04/10 02:59:24;;;;;;;1.07;1.07;;;;;;;;;;5055460;28;20571;-55
2023/04/10 03:01:51;;;;;;;1.10;1.10;;;;;;;;;;5050143;28;20192;-54
2023/04/10 03:04:17;;;;;;;1.10;1.10;;;;;;;;;;5055452;28;20544;-55
2023/04/10 03:06:44;;;;;;;1.10;1.10;;;;;;;;;;5047126;28;20191;-54
2023/04/10 03:09:10;;;;;;;1.10;1.10;;;;;;;;;;5050609;28;20584;-55
2023/04/10 03:11:36;;;;;;;1.00;1.00;;;;;;;;;;5052906;28;20333;-54
2023/04/10 03:14:02;;;;;;;1.20;1.20;;;;;;;;;;5055631;28;20510;-55
2023/04/10 03:16:28;;;;;;;1.07;1.07;;;;;;;;;;5049153;28;20176;-55
2023/04/10 03:18:54;;;;;;;1.10;1.10;;;;;;;;;;5054243;28;20184;-55
2023/04/10 03:21:20;;;;;;;1.00;1.00;;;;;;;;;;5054847;28;20190;-55
2023/04/10 03:23:46;;;;;;;1.00;1.00;;;;;;;;;;5054915;28;20193;-54
2023/04/10 03:26:12;;;;;;;1.20;1.20;;;;;;;;;;5052044;28;20542;-55
2023/04/10 03:28:40;;;;;;;1.00;1.00;;;;;;;;;;5054068;28;20224;-55
2023/04/10 03:31:06;;;;;;;1.00;1.00;;;;;;;;;;5055507;28;20199;-55
2023/04/10 03:33:32;;;;;;;1.00;1.00;;;;;;;;;;5049823;28;20945;-55
2023/04/10 03:35:58;;;;;;;1.10;1.10;;;;;;;;;;5052037;28;20611;-54
2023/04/10 03:38:24;;;;;;;1.10;1.10;;;;;;;;;;5050358;28;20187;-54
2023/04/10 03:40:50;;;;;;;1.10;1.10;;;;;;;;;;5042530;28;20550;-55
2023/04/10 03:43:16;;;;;;;0.90;0.90;;;;;;;;;;5052518;28;20200;-55
2023/04/10 03:45:42;;;;;;;1.00;1.00;;;;;;;;;;5055285;28;20666;-54
2023/04/10 03:48:07;;;;;;;1.10;1.10;;;;;;;;;;5053608;28;20671;-54
2023/04/10 03:50:34;;;;;;;1.10;1.10;;;;;;;;;;5054506;28;20742;-54
2023/04/10 03:53:00;;;;;;;1.20;1.20;;;;;;;;;;5053096;28;20220;-54
2023/04/10 03:55:26;;;;;;;1.20;1.20;;;;;;;;;;5050918;28;20559;-55
2023/04/10 03:57:52;;;;;;;1.07;1.07;;;;;;;;;;5057158;28;20203;-55
2023/04/10 04:00:19;;;;;;;1.00;1.00;;;;;;;;;;5058340;28;20206;-55
2023/04/10 04:02:45;;;;;;;1.30;1.30;;;;;;;;;;5057501;28;20576;-54
2023/04/10 04:05:11;;;;;;;1.10;1.10;;;;;;;;;;5051233;28;20199;-55
2023/04/10 04:07:37;;;;;;;1.00;1.00;;;;;;;;;;5058730;28;20192;-55
2023/04/10 04:10:03;;;;;;;1.30;1.30;;;;;;;;;;5056302;28;20567;-55
2023/04/10 04:12:29;;;;;;;1.20;1.20;;;;;;;;;;5054692;28;20289;-54
2023/04/10 04:14:55;;;;;;;1.17;1.17;;;;;;;;;;5057213;28;20645;-54
2023/04/10 04:17:21;;;;;;;1.10;1.10;;;;;;;;;;5056609;28;20184;-55
2023/04/10 04:19:47;;;;;;;1.17;1.17;;;;;;;;;;5055909;28;20226;-54
2023/04/10 04:22:13;;;;;;;1.00;1.00;;;;;;;;;;5056163;28;20191;-55
2023/04/10 04:24:39;;;;;;;1.10;1.10;;;;;;;;;;5060231;28;20647;-55
2023/04/10 04:27:05;;;;;;;1.13;1.13;;;;;;;;;;5057364;28;20219;-55
2023/04/10 04:29:31;;;;;;;1.10;1.10;;;;;;;;;;5058385;28;20191;-55
2023/04/10 04:31:56;;;;;;;1.10;1.10;;;;;;;;;;5055458;28;20226;-55
2023/04/10 04:34:22;;;;;;;1.07;1.07;;;;;;;;;;5057257;28;20861;-55
2023/04/10 04:36:48;;;;;;;1.10;1.10;;;;;;;;;;5060105;28;20270;-55
2023/04/10 04:39:14;;;;;;;1.10;1.10;;;;;;;;;;5059909;28;20180;-54
2023/04/10 04:41:40;;;;;;;1.00;1.00;;;;;;;;;;5055952;28;20670;-54
2023/04/10 04:44:06;;;;;;;1.27;1.27;;;;;;;;;;5057379;28;20219;-54
2023/04/10 04:46:32;;;;;;;1.23;1.23;;;;;;;;;;5055782;28;20187;-54
2023/04/10 04:48:58;;;;;;;1.20;1.20;;;;;;;;;;5058164;28;20191;-54
2023/04/10 04:51:24;;;;;;;0.90;0.90;;;;;;;;;;5051262;28;20187;-55
2023/04/10 04:53:50;;;;;;;1.00;1.00;;;;;;;;;;5054767;28;20245;-55
2023/04/10 04:56:16;;;;;;;1.00;1.00;;;;;;;;;;5057808;28;20215;-55
2023/04/10 04:58:42;;;;;;;1.10;1.10;;;;;;;;;;5057212;28;20241;-54
2023/04/10 05:01:08;;;;;;;1.10;1.10;;;;;;;;;;5052543;28;20223;-55
2023/04/10 05:03:34;;;;;;;1.03;1.03;;;;;;;;;;5056571;28;20583;-54
2023/04/10 05:06:00;;;;;;;1.17;1.17;;;;;;;;;;5056030;28;20274;-54
2023/04/10 05:08:26;;;;;;;1.10;1.10;;;;;;;;;;5056646;28;20314;-54
2023/04/10 05:10:52;;;;;;;1.10;1.10;;;;;;;;;;5052087;28;20199;-54
2023/04/10 05:13:18;;;;;;;1.10;1.10;;;;;;;;;;5055098;28;20787;-55
2023/04/10 05:15:44;;;;;;;1.20;1.20;;;;;;;;;;5055127;28;20727;-54
2023/04/10 05:18:10;;;;;;;1.20;1.20;;;;;;;;;;5051611;28;20226;-54
2023/04/10 05:20:36;;;;;;;1.00;1.00;;;;;;;;;;5056122;28;20190;-56
2023/04/10 05:23:02;;;;;;;1.00;1.00;;;;;;;;;;5054590;28;20649;-54
2023/04/10 05:25:28;;;;;;;1.00;1.00;;;;;;;;;;5055953;28;20195;-54
2023/04/10 05:27:54;;;;;;;1.10;1.10;;;;;;;;;;5055980;28;20184;-55
2023/04/10 05:30:20;;;;;;;1.20;1.20;;;;;;;;;;5058355;28;20199;-54
2023/04/10 05:32:46;;;;;;;1.10;1.10;;;;;;;;;;5054409;28;20223;-55
2023/04/10 05:35:12;;;;;;;1.00;1.00;;;;;;;;;;5055839;28;20180;-54
2023/04/10 05:37:38;;;;;;;1.10;1.10;;;;;;;;;;5055501;28;20187;-54
2023/04/10 05:40:04;;;;;;;1.00;1.00;;;;;;;;;;5054588;28;20219;-54
2023/04/10 05:42:30;;;;;;;1.00;1.00;;;;;;;;;;5054761;28;20202;-55
2023/04/10 05:44:56;;;;;;;1.00;1.00;;;;;;;;;;5055768;28;20200;-54
2023/04/10 05:47:22;;;;;;;1.20;1.20;;;;;;;;;;5056158;28;20202;-55
2023/04/10 05:49:48;;;;;;;1.10;1.10;;;;;;;;;;5054540;28;20668;-54
2023/04/10 05:52:14;;;;;;;1.10;1.10;;;;;;;;;;5052236;28;20738;-54
2023/04/10 05:54:40;;;;;;;1.10;1.10;;;;;;;;;;5040166;28;20188;-54
2023/04/10 05:57:06;;;;;;;1.10;1.10;;;;;;;;;;5055530;28;20749;-54
2023/04/10 05:59:32;;;;;;;1.10;1.10;;;;;;;;;;5053343;28;20651;-54
2023/04/10 06:01:58;;;;;;;0.90;0.90;;;;;;;;;;5052315;28;20554;-54
2023/04/10 06:04:24;;;;;;;1.10;1.10;;;;;;;;;;5038283;28;20649;-54
2023/04/10 06:06:50;;;;;;;1.20;1.20;;;;;;;;;;5052472;28;20195;-54
2023/04/10 06:09:16;;;;;;;1.20;1.20;;;;;;;;;;5064929;28;20659;-54
2023/04/10 06:11:42;;;;;;;1.00;1.00;;;;;;;;;;5032616;28;20262;-54
2023/04/10 06:14:08;;;;;;;1.20;1.20;;;;;;;;;;5032785;28;20188;-55
2023/04/10 06:16:34;;;;;;;1.00;1.00;;;;;;;;;;5035196;28;20272;-54
2023/04/10 06:19:00;;;;;;;1.00;1.00;;;;;;;;;;5034855;28;20266;-54
2023/04/10 06:21:26;;;;;;;1.10;1.10;;;;;;;;;;5035568;28;20193;-54
2023/04/10 06:23:52;;;;;;;1.10;1.10;;;;;;;;;;5032577;28;20675;-55
2023/04/10 06:26:18;;;;;;;1.00;1.00;;;;;;;;;;5033195;28;20208;-55
2023/04/10 06:28:44;;;;;;;1.20;1.20;;;;;;;;;;5066242;28;20223;-54
2023/04/10 06:31:11;;;;;;;1.00;1.00;;;;;;;;;;5036409;28;20602;-55
2023/04/10 06:33:37;;;;;;;1.10;1.10;;;;;;;;;;5034118;28;20722;-55
2023/04/10 06:36:03;;;;;;;1.00;1.00;;;;;;;;;;5032878;28;20181;-54
2023/04/10 06:38:29;;;;;;;1.10;1.10;;;;;;;;;;5035538;28;20716;-55
2023/04/10 06:40:55;;;;;;;1.10;1.10;;;;;;;;;;5035445;28;20196;-54
2023/04/10 06:43:21;;;;;;;0.70;0.70;;;;;;;;;;5035687;28;20443;-55
2023/04/10 06:45:47;;;;;;;1.00;1.00;;;;;;;;;;5034039;28;20214;-55
2023/04/10 06:48:14;;;;;;;1.10;1.10;;;;;;;;;;5030127;28;20746;-54
2023/04/10 06:50:40;;;;;;;1.13;1.13;;;;;;;;;;5032596;28;20327;-54
2023/04/10 06:53:06;;;;;;;1.50;1.50;;;;;;;;;;5034842;28;20216;-54
2023/04/10 06:55:31;;;;;;;1.20;1.20;;;;;;;;;;5033407;28;20882;-55
2023/04/10 06:57:57;;;;;;;1.30;1.30;;;;;;;;;;5034923;28;20554;-54
2023/04/10 07:00:24;;;;;;;1.20;1.20;;;;;;;;;;5033682;28;20570;-55
2023/04/10 07:02:50;;;;;;;1.20;1.20;;;;;;;;;;5034085;28;20601;-54
2023/04/10 07:05:16;;;;;;;1.40;1.40;;;;;;;;;;5031605;28;20188;-54
2023/04/10 07:07:42;;;;;;;1.20;1.20;;;;;;;;;;5034321;28;20189;-54
2023/04/10 07:10:09;;;;;;;1.30;1.30;;;;;;;;;;5052065;28;21097;-54
2023/04/10 07:12:35;;;;;;;1.10;1.10;;;;;;;;;;5054992;28;21045;-56
2023/04/10 07:15:01;;;;;;;1.10;1.10;;;;;;;;;;5051489;28;20408;-55
2023/04/10 07:17:27;;;;;;;1.08;1.08;;;;;;;;;;5050429;28;20393;-55
2023/04/10 07:19:53;;;;;;;0.90;0.90;;;;;;;;;;5052982;28;20498;-56
2023/04/10 07:22:19;;;;;;;1.10;1.10;;;;;;;;;;5054343;28;20348;-56
2023/04/10 07:24:45;;;;;;;1.93;1.83;;;;;;;;;;5052233;28;20198;-56
2023/04/10 07:27:11;;;;;;;2.30;2.20;;;;;;;;;;5053057;28;20199;-56
2023/04/10 07:29:37;;;;;;;1.50;1.50;;;;;;;;;;5053667;28;20676;-56
2023/04/10 07:32:03;;;;;;;1.30;1.30;;;;;;;;;;5055172;28;20219;-55
2023/04/10 07:34:30;;;;;;;1.40;1.40;;;;;;;;;;5055602;28;20648;-56
2023/04/10 07:36:56;;;;;;;1.20;1.20;;;;;;;;;;5057237;28;20589;-56
2023/04/10 07:39:22;;;;;;;1.20;1.20;;;;;;;;;;5059831;28;20195;-56
2023/04/10 07:41:48;;;;;;;1.07;1.07;;;;;;;;;;5058539;28;20544;-56
2023/04/10 07:44:14;;;;;;;1.13;1.13;;;;;;;;;;5058414;28;20177;-56
2023/04/10 07:46:40;;;;;;;1.20;1.20;;;;;;;;;;5061147;28;20572;-56
2023/04/10 07:49:06;;;;;;;1.30;1.30;;;;;;;;;;5058630;28;20278;-56
2023/04/10 07:51:32;;;;;;;1.23;1.23;;;;;;;;;;5059044;28;20576;-56
2023/04/10 07:53:58;;;;;;;1.50;1.50;;;;;;;;;;5054127;28;20216;-56
2023/04/10 07:56:24;;;;;;;1.47;1.47;;;;;;;;;;5057777;28;20176;-55
2023/04/10 07:58:50;;;;;;;1.63;1.63;;;;;;;;;;5056531;28;20463;-56
2023/04/10 08:01:16;;;;;;;1.40;1.40;;;;;;;;;;5057705;28;20192;-56
2023/04/10 08:03:46;;;;;;;1.30;1.30;;;;;;;;;;5047420;28;20196;-56
2023/04/10 08:06:12;;;;;;;1.20;1.20;;;;;;;;;;5050930;28;20230;-57
2023/04/10 08:08:38;;;;;;;1.43;1.43;;;;;;;;;;5057964;28;20724;-56
2023/04/10 08:11:07;;;;;;;1.20;1.20;;;;;;;;;;5056093;28;20190;-57
2023/04/10 08:13:32;;;;;;;1.30;1.30;;;;;;;;;;5071754;28;20285;-56
2023/04/10 08:15:59;;;;;;;1.20;1.20;;;;;;;;;;5057461;28;20189;-56
2023/04/10 08:18:25;;;;;;;1.37;1.37;;;;;;;;;;5056656;28;20187;-56
2023/04/10 08:20:51;;;;;;;1.20;1.20;;;;;;;;;;5054114;28;20275;-54
2023/04/10 08:23:17;;;;;;;2.00;1.90;;;;;;;;;;5053793;28;20195;-55
2023/04/10 08:25:43;;;;;;;1.13;1.13;;;;;;;;;;5056209;28;20187;-56
2023/04/10 08:28:09;;;;;;;2.10;2.00;;;;;;;;;;5059010;28;20191;-57
2023/04/10 08:30:35;;;;;;;1.83;1.73;;;;;;;;;;5040700;28;20192;-55
2023/04/10 08:33:01;;;;;;;1.60;1.60;;;;;;;;;;5056288;28;20227;-56
2023/04/10 08:35:26;;;;;;;2.27;2.17;;;;;;;;;;5057716;28;20184;-56
2023/04/10 08:37:52;;;;;;;2.40;2.30;;;;;;;;;;5059590;28;20648;-56
2023/04/10 08:40:18;;;;;;;2.27;2.17;;;;;;;;;;5058278;28;20275;-55
2023/04/10 08:42:44;;;;;;;1.50;1.50;;;;;;;;;;5059317;28;20218;-56
2023/04/10 08:45:10;;;;;;;1.80;1.70;;;;;;;;;;5058113;28;20191;-56
2023/04/10 08:47:37;;;;;;;1.87;1.77;;;;;;;;;;5059737;28;20241;-56
2023/04/10 08:50:05;;;;;;;2.20;2.10;;;;;;;;;;5055984;28;20526;-56
2023/04/10 08:52:31;;;;;;;2.30;2.20;;;;;;;;;;5071548;28;20450;-56
2023/04/10 08:54:57;;;;;;;1.90;1.80;;;;;;;;;;5051540;28;20294;-54
2023/04/10 08:57:25;;;;;;;2.20;2.10;;;;;;;;;;5055966;28;20188;-56
2023/04/10 08:59:51;;;;;;;1.90;1.80;;;;;;;;;;5058343;28;20188;-56
2023/04/10 09:02:17;;;;;;;1.90;1.80;;;;;;;;;;5054498;28;20195;-55
2023/04/10 09:04:45;;;;;;;2.20;2.10;;;;;;;;;;5055741;28;20196;-55
2023/04/10 09:07:11;;;;;;;2.00;1.90;;;;;;;;;;5056521;28;20649;-56
2023/04/10 09:09:37;;;;;;;2.10;2.00;;;;;;;;;;5057831;28;20227;-56
2023/04/10 09:12:04;;;;;;;2.30;2.20;;;;;;;;;;5057854;28;20265;-56
2023/04/10 09:14:31;;;;;;;1.40;1.40;;;;;;;;;;5055948;28;20190;-56
2023/04/10 09:17:15;;;;;;;1.50;1.50;;;;;;;;;;5054836;28;20184;-56
2023/04/10 09:19:42;;;;;;;1.00;1.00;;;;;;;;;;5056150;28;20188;-56
2023/04/10 09:22:08;;;;;;;0.80;0.80;;;;;;;;;;5055744;28;20187;-56
2023/04/10 09:24:37;;;;;;;1.20;1.20;;;;;;;;;;5056112;28;20554;-56
2023/04/10 09:27:04;;;;;;;1.10;1.10;;;;;;;;;;5053011;28;20197;-56
2023/04/10 09:29:41;;;;;;;1.20;1.20;;;;;;;;;;5055650;28;20239;-56
2023/04/10 09:32:07;;;;;;;1.40;1.40;;;;;;;;;;5057345;28;20222;-56
2023/04/10 09:34:33;;;;;;;1.20;1.20;;;;;;;;;;5054740;28;20266;-56
2023/04/10 09:37:00;;;;;;;1.20;1.20;;;;;;;;;;5055870;28;20196;-56
2023/04/10 09:39:35;;;;;;;1.40;1.40;;;;;;;;;;5054498;28;20678;-56
2023/04/10 09:42:01;;;;;;;1.30;1.30;;;;;;;;;;5057206;28;20537;-56
2023/04/10 09:44:31;;;;;;;1.40;1.40;;;;;;;;;;5054534;28;20188;-56
2023/04/10 09:46:57;;;;;;;1.30;1.30;;;;;;;;;;5056358;28;20195;-56
2023/04/10 09:49:23;;;;;;;1.40;1.40;;;;;;;;;;5054060;28;20188;-56
2023/04/10 09:51:49;;;;;;;1.30;1.30;;;;;;;;;;5054989;28;20196;-54
2023/04/10 09:54:15;;;;;;;1.50;1.50;;;;;;;;;;5056439;28;20624;-56
2023/04/10 09:56:41;;;;;;;1.30;1.30;;;;;;;;;;5056762;28;20176;-55
2023/04/10 09:59:08;;;;;;;1.20;1.20;;;;;;;;;;5041731;28;20261;-56
2023/04/10 10:01:34;;;;;;;2.08;1.98;;;;;;;;;;5070409;28;20313;-55
2023/04/10 10:04:01;;;;;;;1.60;1.60;;;;;;;;;;5055465;28;20184;-56
2023/04/10 10:06:27;;;;;;;1.90;1.80;;;;;;;;;;5056788;28;20631;-56
2023/04/10 10:08:53;;;;;;;1.30;1.30;;;;;;;;;;5053148;28;20307;-56
2023/04/10 10:11:21;;;;;;;1.77;1.70;;;;;;;;;;5056867;28;20270;-56
2023/04/10 10:13:48;;;;;;;1.20;1.20;;;;;;;;;;5054845;28;20231;-56
2023/04/10 10:16:15;;;;;;;1.90;1.80;;;;;;;;;;5071036;28;20267;-56
2023/04/10 10:18:41;;;;;;;1.80;1.70;;;;;;;;;;5061497;28;20188;-56
2023/04/10 10:21:08;;;;;;;1.38;1.38;;;;;;;;;;5055500;28;20518;-56
2023/04/10 10:23:34;;;;;;;1.10;1.10;;;;;;;;;;5054687;28;20738;-56
2023/04/10 10:26:00;;;;;;;1.42;1.42;;;;;;;;;;5068090;28;20594;-56
2023/04/10 10:28:29;;;;;;;1.30;1.30;;;;;;;;;;5039222;28;20325;-56
2023/04/10 10:30:55;;;;;;;1.10;1.10;;;;;;;;;;5057081;28;20215;-56
2023/04/10 10:33:21;;;;;;;1.20;1.20;;;;;;;;;;5058792;28;20239;-56
2023/04/10 10:35:48;;;;;;;1.20;1.20;;;;;;;;;;5048958;28;20640;-56
2023/04/10 10:38:14;;;;;;;1.10;1.10;;;;;;;;;;5054333;28;20243;-56
2023/04/10 10:40:42;;;;;;;1.10;1.10;;;;;;;;;;5054584;28;20836;-56
2023/04/10 10:43:12;;;;;;;1.15;1.15;;;;;;;;;;5043777;28;20199;-56
2023/04/10 10:45:41;;;;;;;1.10;1.10;;;;;;;;;;5055548;28;20551;-55
2023/04/10 10:48:07;;;;;;;1.20;1.20;;;;;;;;;;5068611;28;20207;-54
2023/04/10 10:51:08;;;;;;;1.30;1.30;;;;;;;;;;5056305;28;20591;-54
2023/04/10 10:53:36;;;;;;;1.10;1.10;;;;;;;;;;4981430;28;20205;-56
2023/04/10 10:56:22;;;;;;;1.10;1.10;;;;;;;;;;5041881;28;20203;-55
2023/04/10 10:58:49;;;;;;;1.30;1.30;;;;;;;;;;5055034;28;20187;-56
2023/04/10 11:01:15;;;;;;;1.27;1.27;;;;;;;;;;5055250;28;20266;-56
2023/04/10 11:03:43;;;;;;;1.20;1.20;;;;;;;;;;5055589;28;20188;-56
2023/04/10 11:06:11;;;;;;;1.20;1.20;;;;;;;;;;5053611;28;20682;-56
2023/04/10 11:08:47;;;;;;;1.27;1.27;;;;;;;;;;5057842;28;20733;-56
2023/04/10 11:11:16;;;;;;;1.20;1.20;;;;;;;;;;5060519;28;20175;-56
2023/04/10 11:13:55;;;;;;;1.30;1.30;;;;;;;;;;5039827;28;20779;-56
2023/04/10 11:16:21;;;;;;;1.30;1.30;;;;;;;;;;5062191;28;20191;-55
2023/04/10 11:18:50;;;;;;;1.30;1.30;;;;;;;;;;5073194;28;20694;-55
2023/04/10 11:21:17;;;;;;;1.30;1.30;;;;;;;;;;5059682;28;20187;-56
2023/04/10 11:23:53;;;;;;;1.20;1.20;;;;;;;;;;5074146;28;20644;-55
2023/04/10 11:26:34;;;;;;;1.10;1.10;;;;;;;;;;5055787;28;20321;-55
2023/04/10 11:29:06;;;;;;;1.17;1.17;;;;;;;;;;5059977;28;20258;-55
2023/04/10 11:31:33;;;;;;;1.10;1.10;;;;;;;;;;5057476;28;20184;-56
2023/04/10 11:34:03;;;;;;;1.10;1.10;;;;;;;;;;5074037;28;20574;-55
2023/04/10 11:36:29;;;;;;;1.05;1.05;;;;;;;;;;5057818;28;20202;-55
2023/04/10 11:38:56;;;;;;;1.10;1.10;;;;;;;;;;5058268;28;20264;-55
2023/04/10 11:41:26;;;;;;;1.00;1.00;;;;;;;;;;5057305;28;20241;-55
2023/04/10 11:43:52;;;;;;;0.98;0.98;;;;;;;;;;5059911;28;20188;-55
2023/04/10 11:46:18;;;;;;;0.93;0.93;;;;;;;;;;5059519;28;20560;-55
2023/04/10 11:48:44;;;;;;;1.00;1.00;;;;;;;;;;5058047;28;20238;-55
2023/04/10 11:51:11;;;;;;;1.00;1.00;;;;;;;;;;5063385;28;20675;-56
2023/04/10 11:53:37;;;;;;;1.00;1.00;;;;;;;;;;5060128;28;20662;-55
2023/04/10 11:56:06;;;;;;;1.15;1.15;;;;;;;;;;5058956;28;20301;-56
2023/04/10 11:58:32;;;;;;;1.00;1.00;;;;;;;;;;5056129;28;20190;-56
2023/04/10 12:01:01;;;;;;;1.10;1.10;;;;;;;;;;5058157;28;20189;-55
2023/04/10 12:03:34;;;;;;;1.10;1.10;;;;;;;;;;5057040;28;20172;-55
2023/04/10 12:06:00;;;;;;;1.10;1.10;;;;;;;;;;5059014;28;20262;-55
2023/04/10 12:08:30;;;;;;;1.00;1.00;;;;;;;;;;5058638;28;20759;-56
2023/04/10 12:10:56;;;;;;;1.00;1.00;;;;;;;;;;5058806;28;20191;-55
2023/04/10 12:13:28;;;;;;;1.00;1.00;;;;;;;;;;5057437;28;20222;-56
2023/04/10 12:15:54;;;;;;;1.00;1.00;;;;;;;;;;5057379;28;20188;-55
2023/04/10 12:18:20;;;;;;;1.00;1.00;;;;;;;;;;5057762;28;20195;-55
2023/04/10 12:20:47;;;;;;;1.10;1.10;;;;;;;;;;5059468;28;21026;-55
2023/04/10 12:23:12;;;;;;;1.00;1.00;;;;;;;;;;5067289;28;20610;-56
2023/04/10 12:25:39;;;;;;;1.00;1.00;;;;;;;;;;5057845;28;20222;-55
2023/04/10 12:28:05;;;;;;;0.90;0.90;;;;;;;;;;5057716;28;20203;-55
2023/04/10 12:30:31;;;;;;;1.00;1.00;;;;;;;;;;5054788;28;20191;-55
2023/04/10 12:32:59;;;;;;;0.90;0.90;;;;;;;;;;5058596;28;20241;-56
2023/04/10 12:35:37;;;;;;;1.00;1.00;;;;;;;;;;5057138;28;20265;-56
2023/04/10 12:38:04;;;;;;;1.00;1.00;;;;;;;;;;5059250;28;20758;-55
2023/04/10 12:40:30;;;;;;;0.90;0.90;;;;;;;;;;5056474;28;20535;-55
2023/04/10 12:42:56;;;;;;;0.90;0.90;;;;;;;;;;5054709;28;20189;-55
2023/04/10 12:45:22;;;;;;;1.20;1.20;;;;;;;;;;5069168;28;20180;-55
2023/04/10 12:47:50;;;;;;;1.10;1.10;;;;;;;;;;5070969;28;20196;-55
2023/04/10 12:50:17;;;;;;;1.10;1.10;;;;;;;;;;5057218;28;20214;-55
2023/04/10 12:52:46;;;;;;;1.10;1.10;;;;;;;;;;5059701;28;20205;-55
2023/04/10 12:55:15;;;;;;;1.30;1.30;;;;;;;;;;5053931;28;20251;-56
2023/04/10 12:57:42;;;;;;;1.20;1.20;;;;;;;;;;5058601;28;20209;-55
2023/04/10 13:00:09;;;;;;;1.48;1.48;;;;;;;;;;5054504;28;20488;-56
2023/04/10 13:02:36;;;;;;;0.90;0.90;;;;;;;;;;5055131;28;20207;-55
2023/04/10 13:05:02;;;;;;;0.90;0.90;;;;;;;;;;5053452;28;20214;-55
2023/04/10 13:07:28;;;;;;;0.88;0.88;;;;;;;;;;5056254;28;20188;-55
2023/04/10 13:09:54;;;;;;;0.90;0.90;;;;;;;;;;5055621;28;20289;-55
2023/04/10 13:12:21;;;;;;;0.90;0.90;;;;;;;;;;5056013;28;20223;-56
2023/04/10 13:14:47;;;;;;;0.90;0.90;;;;;;;;;;5055364;28;20527;-55
2023/04/10 13:17:13;;;;;;;0.80;0.80;;;;;;;;;;5055280;28;20183;-56
2023/04/10 13:19:39;;;;;;;0.80;0.80;;;;;;;;;;5055462;28;20188;-56
2023/04/10 13:22:04;;;;;;;0.80;0.80;;;;;;;;;;5058032;28;20187;-55
2023/04/10 13:24:30;;;;;;;0.90;0.90;;;;;;;;;;5054507;28;20195;-56
2023/04/10 13:27:00;;;;;;;0.80;0.80;;;;;;;;;;5058382;28;20541;-56
2023/04/10 13:29:26;;;;;;;0.90;0.90;;;;;;;;;;5054502;28;20188;-56
2023/04/10 13:31:52;;;;;;;0.90;0.90;;;;;;;;;;5058731;28;20265;-56
2023/04/10 13:34:18;;;;;;;1.00;1.00;;;;;;;;;;5058730;28;20703;-55
2023/04/10 13:36:44;;;;;;;0.90;0.90;;;;;;;;;;5059080;28;20192;-55
2023/04/10 13:39:09;;;;;;;1.00;1.00;;;;;;;;;;5054589;28;20196;-55
2023/04/10 13:41:35;;;;;;;0.82;0.82;;;;;;;;;;5053335;28;20180;-56
2023/04/10 13:44:01;;;;;;;0.90;0.90;;;;;;;;;;5055511;28;20647;-56
2023/04/10 13:46:27;;;;;;;0.90;0.90;;;;;;;;;;5057033;28;20192;-56
2023/04/10 13:48:53;;;;;;;1.00;1.00;;;;;;;;;;5054434;28;20276;-56
2023/04/10 13:51:19;;;;;;;1.00;1.00;;;;;;;;;;5055446;28;20242;-56
2023/04/10 13:53:45;;;;;;;1.00;1.00;;;;;;;;;;5056657;28;20286;-56
2023/04/10 13:56:11;;;;;;;1.00;1.00;;;;;;;;;;5054017;28;20199;-56
2023/04/10 13:58:37;;;;;;;1.00;1.00;;;;;;;;;;5056107;28;20184;-55
2023/04/10 14:01:03;;;;;;;0.90;0.90;;;;;;;;;;5055746;28;20179;-55
2023/04/10 14:03:29;;;;;;;0.90;0.90;;;;;;;;;;5055122;28;20271;-55
2023/04/10 14:05:55;;;;;;;0.90;0.90;;;;;;;;;;5053745;28;20687;-56
2023/04/10 14:08:21;;;;;;;0.90;0.90;;;;;;;;;;5054138;28;20314;-55
2023/04/10 14:10:49;;;;;;;0.88;0.88;;;;;;;;;;5054706;28;20183;-55
2023/04/10 14:13:15;;;;;;;0.90;0.90;;;;;;;;;;5050864;28;20255;-55
2023/04/10 14:15:41;;;;;;;0.80;0.80;;;;;;;;;;5050427;28;20200;-55
2023/04/10 14:18:07;;;;;;;0.80;0.80;;;;;;;;;;5054019;28;20188;-56
2023/04/10 14:20:33;;;;;;;0.90;0.90;;;;;;;;;;5057393;28;20577;-55
2023/04/10 14:23:00;;;;;;;0.90;0.90;;;;;;;;;;5056489;28;20302;-55
2023/04/10 14:25:26;;;;;;;0.80;0.80;;;;;;;;;;5054229;28;20190;-55
2023/04/10 14:27:52;;;;;;;0.80;0.80;;;;;;;;;;5051608;28;20192;-55
2023/04/10 14:30:18;;;;;;;1.30;1.30;;;;;;;;;;5056883;28;20234;-55
2023/04/10 14:32:44;;;;;;;1.20;1.20;;;;;;;;;;5054915;28;20306;-56
2023/04/10 14:35:10;;;;;;;1.20;1.20;;;;;;;;;;5053854;28;20780;-57
2023/04/10 14:37:36;;;;;;;1.10;1.10;;;;;;;;;;5055020;28;20187;-56
2023/04/10 14:40:03;;;;;;;1.00;1.00;;;;;;;;;;5056081;28;20557;-55
2023/04/10 14:42:29;;;;;;;1.00;1.00;;;;;;;;;;5053556;28;20203;-56